Sadan Bayraktar — TCRB — position and weather

sailwx.info

Track history (hours):
 
Tides and Currents Weather Stations Pressure Air Temp Water Temp Dewpoint Dewpoint Depression Visibility Wind Speed Wind Dir Waves Ship Positions

Sadan Bayraktar

Last reported at 2016-Feb-08 14:32 UTC. Time now 2016-Feb-12 12:06 UTC.
Position N 38°07' E 000°03'.

Length 116 m; draft 5.8 m.

Type: Ship. MMSI: 271000653.

Date/timePositionNaut miles runAvg speedWind from/ knotsBaromVisibWave heightAir tempDewpointWater temp
2016-Feb-08 14:32N 38°07' E 000°03'2512.3
2016-Feb-08 12:28N 37°46' W 000°15'1111.7
2016-Feb-08 11:33N 37°37' W 000°22'  
2016-Feb-03 00:27N 39°24' W 000°13'6 6.3
2016-Feb-02 23:33N 39°27' W 000°19'0 0.0
2016-Feb-02 22:33N 39°27' W 000°19'0 0.0
2016-Feb-02 21:33N 39°27' W 000°19'0 0.0
2016-Feb-02 20:33N 39°27' W 000°19'0 0.0
2016-Feb-02 19:30N 39°27' W 000°19'0 0.0
2016-Feb-02 18:30N 39°27' W 000°19'0 0.0
2016-Feb-02 17:33N 39°27' W 000°19'0 0.0
2016-Feb-02 16:33N 39°27' W 000°19'0 0.0
2016-Feb-02 15:33N 39°27' W 000°19'0 0.0
2016-Feb-02 14:33N 39°27' W 000°19'0 0.0
2016-Feb-02 13:33N 39°27' W 000°19'0 0.0
2016-Feb-02 12:30N 39°27' W 000°19'0 0.0
2016-Feb-02 11:33N 39°27' W 000°19'0 0.0
2016-Feb-02 10:33N 39°27' W 000°19'0 0.0
2016-Feb-02 09:33N 39°27' W 000°19'0 0.0
2016-Feb-02 08:33N 39°27' W 000°19'0 0.4
2016-Feb-02 07:33N 39°27' W 000°19'4 0.5
2016-Feb-02 00:31N 39°23' W 000°17'0 0.0
2016-Jan-31 23:12N 39°23' W 000°17'0 0.0
2016-Jan-31 22:18N 39°23' W 000°17'0 0.0
2016-Jan-31 20:03N 39°23' W 000°17'0 0.0
2016-Jan-31 19:12N 39°23' W 000°17'0 0.0
2016-Jan-31 16:12N 39°23' W 000°17'0 0.0
2016-Jan-31 14:27N 39°23' W 000°17'0 0.0
2016-Jan-31 12:24N 39°23' W 000°17'0 0.0
2016-Jan-31 11:33N 39°23' W 000°17'0 0.0
2016-Jan-31 10:06N 39°23' W 000°17'0 0.0
2016-Jan-31 09:12N 39°23' W 000°17'0 0.0
2016-Jan-31 08:33N 39°23' W 000°17'0 0.0
2016-Jan-31 06:31N 39°23' W 000°17'0 0.0
2016-Jan-31 05:25N 39°23' W 000°17'0 0.0
2016-Jan-31 04:31N 39°23' W 000°17'0 0.0
2016-Jan-31 02:07N 39°23' W 000°17'0 0.0
2016-Jan-30 15:32N 39°23' W 000°18'0 0.0
2016-Jan-30 11:28N 39°23' W 000°17'0 0.0
2016-Jan-30 10:28N 39°23' W 000°17'0 0.0
2016-Jan-30 09:19N 39°23' W 000°17'0 0.0
2016-Jan-30 08:13N 39°23' W 000°17'0 0.0
2016-Jan-30 07:31N 39°23' W 000°17'0 0.0
2016-Jan-30 06:22N 39°23' W 000°18'0 0.0
2016-Jan-30 05:31N 39°23' W 000°17'0 0.0
2016-Jan-30 04:31N 39°23' W 000°17'0 0.0
2016-Jan-30 03:25N 39°23' W 000°18'0 0.0
2016-Jan-29 20:31N 39°23' W 000°18'0 0.0
2016-Jan-29 19:31N 39°23' W 000°18'0 0.0
2016-Jan-29 18:28N 39°23' W 000°18'0 0.0
2016-Jan-29 17:31N 39°23' W 000°18'0 0.0
2016-Jan-29 16:31N 39°23' W 000°18'0 0.0
2016-Jan-29 15:31N 39°23' W 000°18'  
Track history (hours):
 
Tides and Currents Weather Stations Pressure Air Temp Water Temp Dewpoint Dewpoint Depression Visibility Wind Speed Wind Dir Waves Ship Positions

Sadan Bayraktar

Last reported at 2016-Feb-08 14:32 UTC. Time now 2016-Feb-12 12:06 UTC.
Position N 38°07' E 000°03'.

Length 116 m; draft 5.8 m.

Type: Ship. MMSI: 271000653.

Date/timePositionNaut miles runAvg speedWind from/ knotsBaromVisibWave heightAir tempDewpointWater temp
2016-Feb-08 14:32N 38°07' E 000°03'2512.3
2016-Feb-08 12:28N 37°46' W 000°15'1111.7
2016-Feb-08 11:33N 37°37' W 000°22'  
2016-Feb-03 00:27N 39°24' W 000°13'6 6.3
2016-Feb-02 23:33N 39°27' W 000°19'0 0.0
2016-Feb-02 22:33N 39°27' W 000°19'0 0.0
2016-Feb-02 21:33N 39°27' W 000°19'0 0.0
2016-Feb-02 20:33N 39°27' W 000°19'0 0.0
2016-Feb-02 19:30N 39°27' W 000°19'0 0.0
2016-Feb-02 18:30N 39°27' W 000°19'0 0.0
2016-Feb-02 17:33N 39°27' W 000°19'0 0.0
2016-Feb-02 16:33N 39°27' W 000°19'0 0.0
2016-Feb-02 15:33N 39°27' W 000°19'0 0.0
2016-Feb-02 14:33N 39°27' W 000°19'0 0.0
2016-Feb-02 13:33N 39°27' W 000°19'0 0.0
2016-Feb-02 12:30N 39°27' W 000°19'0 0.0
2016-Feb-02 11:33N 39°27' W 000°19'0 0.0
2016-Feb-02 10:33N 39°27' W 000°19'0 0.0
2016-Feb-02 09:33N 39°27' W 000°19'0 0.0
2016-Feb-02 08:33N 39°27' W 000°19'0 0.4
2016-Feb-02 07:33N 39°27' W 000°19'4 0.5
2016-Feb-02 00:31N 39°23' W 000°17'0 0.0
2016-Jan-31 23:12N 39°23' W 000°17'0 0.0
2016-Jan-31 22:18N 39°23' W 000°17'0 0.0
2016-Jan-31 20:03N 39°23' W 000°17'0 0.0
2016-Jan-31 19:12N 39°23' W 000°17'0 0.0
2016-Jan-31 16:12N 39°23' W 000°17'0 0.0
2016-Jan-31 14:27N 39°23' W 000°17'0 0.0
2016-Jan-31 12:24N 39°23' W 000°17'0 0.0
2016-Jan-31 11:33N 39°23' W 000°17'0 0.0
2016-Jan-31 10:06N 39°23' W 000°17'0 0.0
2016-Jan-31 09:12N 39°23' W 000°17'0 0.0
2016-Jan-31 08:33N 39°23' W 000°17'0 0.0
2016-Jan-31 06:31N 39°23' W 000°17'0 0.0
2016-Jan-31 05:25N 39°23' W 000°17'0 0.0
2016-Jan-31 04:31N 39°23' W 000°17'0 0.0
2016-Jan-31 02:07N 39°23' W 000°17'0 0.0
2016-Jan-30 15:32N 39°23' W 000°18'0 0.0
2016-Jan-30 11:28N 39°23' W 000°17'0 0.0
2016-Jan-30 10:28N 39°23' W 000°17'0 0.0
2016-Jan-30 09:19N 39°23' W 000°17'0 0.0
2016-Jan-30 08:13N 39°23' W 000°17'0 0.0
2016-Jan-30 07:31N 39°23' W 000°17'0 0.0
2016-Jan-30 06:22N 39°23' W 000°18'0 0.0
2016-Jan-30 05:31N 39°23' W 000°17'0 0.0
2016-Jan-30 04:31N 39°23' W 000°17'0 0.0
2016-Jan-30 03:25N 39°23' W 000°18'0 0.0
2016-Jan-29 20:31N 39°23' W 000°18'0 0.0
2016-Jan-29 19:31N 39°23' W 000°18'0 0.0
2016-Jan-29 18:28N 39°23' W 000°18'0 0.0
2016-Jan-29 17:31N 39°23' W 000°18'0 0.0
2016-Jan-29 16:31N 39°23' W 000°18'0 0.0
2016-Jan-29 15:31N 39°23' W 000°18'  

Dump ship's entire track history